Time;durP1;ratioP1;P1;durP2;ratioP2;P2;SDS_P1;SDS_P2;PMS_P1;PMS_P2;Temp;Humidity;BMP_temperature;BMP_pressure;BME280_temperature;BME280_humidity;BME280_pressure;Samples;Min_cycle;Max_cycle;Signal;HPM_P1;HPM_P2
2021/01/26 00:01:54;;;;;;;31.20;10.55;;;;;;;-1.19;81.53;97769.31;2259525;79;21708;-65
2021/01/26 00:04:56;;;;;;;28.33;9.00;;;;;;;-1.18;81.81;97776.16;2259751;79;21356;-63
2021/01/26 00:07:57;;;;;;;27.82;8.48;;;;;;;-1.18;81.53;97778.72;2259432;78;21516;-63
2021/01/26 00:10:58;;;;;;;32.38;10.53;;;;;;;-1.18;81.66;97782.58;2259555;79;21280;-63
2021/01/26 00:13:59;;;;;;;34.03;12.18;;;;;;;-1.20;82.08;97781.34;2259339;79;21253;-63
2021/01/26 00:17:00;;;;;;;32.93;11.55;;;;;;;-1.18;82.38;97782.58;2259415;79;21730;-63
2021/01/26 00:20:02;;;;;;;31.20;11.75;;;;;;;-1.20;82.73;97781.34;2259525;79;21174;-65
2021/01/26 00:23:03;;;;;;;35.68;12.37;;;;;;;-1.22;82.74;97776.25;2259781;79;21273;-64
2021/01/26 00:26:04;;;;;;;33.33;12.05;;;;;;;-1.22;83.07;97772.84;2259234;79;21260;-63
2021/01/26 00:29:05;;;;;;;35.03;12.23;;;;;;;-1.23;83.31;97788.70;2259530;79;21257;-63
2021/01/26 00:32:06;;;;;;;29.52;9.65;;;;;;;-1.24;83.06;97787.47;2259481;79;21276;-63
2021/01/26 00:35:08;;;;;;;34.85;11.43;;;;;;;-1.24;82.80;97789.59;2259313;78;21277;-63
2021/01/26 00:38:09;;;;;;;37.10;12.28;;;;;;;-1.25;83.20;97792.20;2259369;79;21717;-62
2021/01/26 00:41:11;;;;;;;35.80;12.30;;;;;;;-1.25;83.38;97790.92;2259737;79;21705;-63
2021/01/26 00:44:12;;;;;;;37.65;13.43;;;;;;;-1.24;83.83;97795.19;2259466;79;21689;-63
2021/01/26 00:47:13;;;;;;;35.10;12.93;;;;;;;-1.26;84.29;97796.52;2259389;79;21582;-63
2021/01/26 00:50:15;;;;;;;35.73;13.68;;;;;;;-1.26;84.01;97791.37;2259663;79;21114;-63
2021/01/26 00:53:16;;;;;;;34.23;12.00;;;;;;;-1.26;84.05;97795.69;2259320;79;21316;-63
2021/01/26 00:56:18;;;;;;;37.05;13.38;;;;;;;-1.25;84.02;97799.92;2259203;79;21281;-63
2021/01/26 00:59:19;;;;;;;34.45;11.43;;;;;;;-1.26;83.91;97799.09;2259353;79;21126;-62
2021/01/26 01:02:20;;;;;;;40.80;14.78;;;;;;;-1.26;83.92;97808.56;2259445;79;21280;-63
2021/01/26 01:05:21;;;;;;;36.17;13.15;;;;;;;-1.26;84.45;97801.67;2262094;79;21149;-63
2021/01/26 01:08:22;;;;;;;40.35;14.40;;;;;;;-1.28;84.36;97800.88;2263734;79;21696;-63
2021/01/26 01:11:24;;;;;;;39.30;13.80;;;;;;;-1.28;84.22;97802.17;2263992;79;21277;-63
2021/01/26 01:14:26;;;;;;;36.98;13.13;;;;;;;-1.30;84.02;97796.21;2263727;79;21253;-63
2021/01/26 01:17:27;;;;;;;37.75;14.87;;;;;;;-1.28;84.17;97800.88;2264033;79;21312;-63
2021/01/26 01:20:29;;;;;;;39.55;14.40;;;;;;;-1.28;84.30;97803.88;2263499;79;21094;-64
2021/01/26 01:23:30;;;;;;;40.73;13.93;;;;;;;-1.28;84.18;97800.88;2263717;79;21272;-66
2021/01/26 01:26:31;;;;;;;39.45;14.58;;;;;;;-1.29;84.65;97792.76;2263737;79;21256;-65
2021/01/26 01:29:32;;;;;;;37.83;13.03;;;;;;;-1.30;84.26;97798.78;2263449;79;21146;-63
2021/01/26 01:32:33;;;;;;;36.25;12.82;;;;;;;-1.28;84.64;97797.45;2263486;79;21134;-63
2021/01/26 01:35:34;;;;;;;40.95;13.80;;;;;;;-1.31;84.72;97797.09;2263559;79;21713;-63
2021/01/26 01:38:35;;;;;;;37.15;14.80;;;;;;;-1.30;84.92;97800.07;2263998;79;21276;-64
2021/01/26 01:41:37;;;;;;;40.40;15.78;;;;;;;-1.31;85.06;97801.41;2263589;79;21272;-63
2021/01/26 01:44:38;;;;;;;39.55;15.90;;;;;;;-1.29;85.18;97800.94;2263692;79;21269;-64
2021/01/26 01:47:39;;;;;;;40.23;14.85;;;;;;;-1.30;85.20;97799.23;2263449;79;21117;-64
2021/01/26 01:50:40;;;;;;;43.85;15.60;;;;;;;-1.30;85.62;97808.24;2263460;79;21138;-65
2021/01/26 01:53:41;;;;;;;43.63;15.70;;;;;;;-1.30;85.41;97802.64;2263669;79;21149;-63
2021/01/26 01:56:44;;;;;;;41.18;15.43;;;;;;;-1.29;85.64;97817.66;2263519;79;21272;-63
2021/01/26 01:59:46;;;;;;;40.15;16.00;;;;;;;-1.30;85.30;97813.39;2263712;79;21708;-64
2021/01/26 02:02:47;;;;;;;36.65;14.23;;;;;;;-1.29;85.62;97815.09;2263962;79;21300;-63
2021/01/26 02:05:48;;;;;;;39.83;15.43;;;;;;;-1.31;85.40;97818.95;2263535;79;21300;-63
2021/01/26 02:08:50;;;;;;;38.42;14.75;;;;;;;-1.29;85.49;97821.52;2263927;79;21277;-62
2021/01/26 02:11:52;;;;;;;43.10;16.12;;;;;;;-1.30;85.25;97820.66;2263718;79;21282;-63
2021/01/26 02:14:53;;;;;;;37.95;14.70;;;;;;;-1.29;85.33;97822.80;2263686;79;21288;-64
2021/01/26 02:17:54;;;;;;;39.60;15.23;;;;;;;-1.31;85.35;97813.81;2263550;79;21717;-63
2021/01/26 02:20:55;;;;;;;40.12;15.68;;;;;;;-1.31;85.17;97809.95;2263726;79;21688;-63
2021/01/26 02:23:56;;;;;;;40.95;15.72;;;;;;;-1.30;84.76;97817.25;2263548;79;21712;-63
2021/01/26 02:26:58;;;;;;;38.33;14.53;;;;;;;-1.30;85.04;97801.81;2263684;79;21736;-64
2021/01/26 02:29:59;;;;;;;41.00;15.88;;;;;;;-1.30;84.49;97803.09;2263903;79;21276;-64
2021/01/26 02:33:00;;;;;;;37.83;14.90;;;;;;;-1.31;84.10;97800.12;2263396;79;21122;-62
2021/01/26 02:36:01;;;;;;;41.42;14.78;;;;;;;-1.33;83.99;97810.91;2263381;79;21198;-64
2021/01/26 02:39:02;;;;;;;39.08;14.40;;;;;;;-1.31;83.94;97816.84;2263444;79;21121;-63
2021/01/26 02:42:03;;;;;;;33.80;12.05;;;;;;;-1.32;84.36;97809.58;2263686;79;21264;-63
2021/01/26 02:45:06;;;;;;;36.68;13.13;;;;;;;-1.34;84.26;97824.20;2263636;79;21553;-63
2021/01/26 02:48:07;;;;;;;38.33;13.72;;;;;;;-1.36;84.60;97823.87;2263662;79;21269;-65
2021/01/26 02:51:08;;;;;;;41.92;15.55;;;;;;;-1.36;84.48;97827.73;2263619;79;21324;-64
2021/01/26 02:54:09;;;;;;;37.17;14.53;;;;;;;-1.37;84.59;97829.89;2263457;79;21704;-66
2021/01/26 02:57:10;;;;;;;37.25;14.50;;;;;;;-1.36;84.62;97831.59;2263659;79;21150;-64
2021/01/26 03:00:11;;;;;;;40.98;16.05;;;;;;;-1.36;84.42;97841.42;2263521;79;21114;-64
2021/01/26 03:03:12;;;;;;;37.45;13.50;;;;;;;-1.35;84.79;97837.11;2263593;79;21712;-64
2021/01/26 03:06:14;;;;;;;38.23;14.83;;;;;;;-1.37;84.93;97826.86;2260217;79;21745;-64
2021/01/26 03:09:15;;;;;;;41.42;15.25;;;;;;;-1.36;85.21;97831.59;2259103;79;21716;-63
2021/01/26 03:12:16;;;;;;;40.15;15.08;;;;;;;-1.37;85.31;97832.01;2259474;79;21281;-63
2021/01/26 03:15:17;;;;;;;41.60;16.15;;;;;;;-1.35;85.66;97834.53;2259308;79;21609;-63
2021/01/26 03:18:18;;;;;;;43.00;16.10;;;;;;;-1.34;85.77;97844.78;2259014;79;21296;-64
2021/01/26 03:21:19;;;;;;;40.92;13.68;;;;;;;-1.34;85.97;97831.09;2259355;79;21248;-63
2021/01/26 03:24:21;;;;;;;41.80;16.45;;;;;;;-1.34;86.01;97837.06;2259065;79;21114;-63
2021/01/26 03:27:22;;;;;;;45.98;18.35;;;;;;;-1.34;86.10;97833.20;2259362;79;21265;-67
2021/01/26 03:30:24;;;;;;;42.27;16.32;;;;;;;-1.33;86.20;97841.78;2259730;79;21161;-63
2021/01/26 03:33:25;;;;;;;39.90;14.75;;;;;;;-1.31;86.51;97843.86;2259087;79;21281;-64
2021/01/26 03:36:26;;;;;;;42.80;17.17;;;;;;;-1.31;86.40;97843.41;2259108;79;21146;-63
2021/01/26 03:39:27;;;;;;;46.68;17.30;;;;;;;-1.28;86.46;97846.34;2259211;79;21732;-63
2021/01/26 03:42:29;;;;;;;43.33;17.37;;;;;;;-1.27;86.37;97846.75;2259362;79;21276;-65
2021/01/26 03:45:30;;;;;;;42.53;17.35;;;;;;;-1.26;86.42;97851.02;2259181;79;21265;-64
2021/01/26 03:48:32;;;;;;;45.00;18.00;;;;;;;-1.24;86.33;97854.38;2259226;79;21704;-65
2021/01/26 03:51:33;;;;;;;41.35;15.55;;;;;;;-1.23;86.19;97854.78;2259466;79;21277;-65
2021/01/26 03:54:34;;;;;;;39.63;13.95;;;;;;;-1.23;86.14;97865.07;2259034;79;21133;-63
2021/01/26 03:57:35;;;;;;;46.73;18.45;;;;;;;-1.22;86.05;97868.89;2259066;79;21586;-63
2021/01/26 04:00:36;;;;;;;42.67;16.05;;;;;;;-1.21;86.14;97863.28;2259358;79;21276;-65
2021/01/26 04:03:38;;;;;;;40.30;15.30;;;;;;;-1.22;86.18;97870.62;2259066;79;21292;-63
2021/01/26 04:06:39;;;;;;;41.33;15.08;;;;;;;-1.22;85.25;97869.34;2259019;79;21272;-63
2021/01/26 04:09:40;;;;;;;38.55;15.03;;;;;;;-1.20;85.18;97877.02;2259149;79;21265;-64
2021/01/26 04:12:41;;;;;;;37.93;14.38;;;;;;;-1.21;84.62;97876.16;2258994;79;21305;-63
2021/01/26 04:15:42;;;;;;;37.80;13.68;;;;;;;-1.22;84.19;97878.34;2259105;79;21248;-63
2021/01/26 04:18:43;;;;;;;37.42;13.22;;;;;;;-1.22;84.06;97888.64;2259544;79;21518;-64
2021/01/26 04:21:45;;;;;;;32.95;11.18;;;;;;;-1.23;83.99;97886.49;2259239;79;21708;-64
2021/01/26 04:24:46;;;;;;;29.05;10.18;;;;;;;-1.23;82.25;97888.23;2259730;79;21138;-67
2021/01/26 04:27:47;;;;;;;30.37;11.00;;;;;;;-1.22;81.70;97889.92;2259520;79;21746;-64
2021/01/26 04:30:48;;;;;;;31.10;11.15;;;;;;;-1.22;81.90;97897.65;2259244;79;21273;-63
2021/01/26 04:33:50;;;;;;;32.90;11.83;;;;;;;-1.23;81.74;97889.52;2259217;79;21249;-64
2021/01/26 04:36:51;;;;;;;37.63;12.98;;;;;;;-1.25;81.69;97894.71;2259192;79;21291;-63
2021/01/26 04:39:52;;;;;;;34.00;11.80;;;;;;;-1.23;82.03;97890.80;2259210;79;21148;-63
2021/01/26 04:42:53;;;;;;;32.38;11.25;;;;;;;-1.25;81.96;97897.70;2259329;79;21315;-63
2021/01/26 04:45:54;;;;;;;33.42;11.90;;;;;;;-1.26;81.56;97897.33;2227221;79;21256;-62
2021/01/26 04:48:58;;;;;;;33.08;11.68;;;;;;;-1.26;82.14;97899.91;2259341;79;21288;-63
2021/01/26 04:51:59;;;;;;;34.05;12.45;;;;;;;-1.28;81.65;97902.52;2259236;79;21767;-64
2021/01/26 04:55:00;;;;;;;34.48;12.73;;;;;;;-1.27;82.05;97901.61;2259477;79;21257;-63
2021/01/26 04:58:01;;;;;;;28.70;9.25;;;;;;;-1.27;82.23;97891.77;2259275;79;21804;-63
2021/01/26 05:01:03;;;;;;;30.55;10.63;;;;;;;-1.29;82.18;97894.84;2259716;79;21578;-63
2021/01/26 05:04:04;;;;;;;28.12;10.35;;;;;;;-1.30;81.94;97894.44;2259653;79;21127;-63
2021/01/26 05:07:05;;;;;;;31.80;11.43;;;;;;;-1.31;82.51;97896.60;2259367;79;21284;-62
2021/01/26 05:10:06;;;;;;;33.95;11.57;;;;;;;-1.31;82.84;97897.89;2259488;79;21253;-64
2021/01/26 05:13:07;;;;;;;30.37;10.13;;;;;;;-1.33;83.08;97887.64;2259187;79;21281;-63
2021/01/26 05:16:09;;;;;;;33.75;11.83;;;;;;;-1.34;82.63;97906.53;2259441;79;21147;-63
2021/01/26 05:19:10;;;;;;;33.90;12.30;;;;;;;-1.34;83.31;97900.55;2259448;79;21293;-63
2021/01/26 05:22:11;;;;;;;34.98;12.63;;;;;;;-1.37;83.44;97906.62;2259306;79;21535;-63
2021/01/26 05:25:13;;;;;;;38.33;13.55;;;;;;;-1.38;84.02;97902.34;2259357;79;21285;-63
2021/01/26 05:28:14;;;;;;;36.83;13.38;;;;;;;-1.37;84.05;97909.64;2259712;79;21131;-65
2021/01/26 05:31:26;;;;;;;40.95;15.35;;;;;;;-1.36;83.77;97903.17;2259226;79;21118;-63
2021/01/26 05:34:19;;;;;;;37.78;14.68;;;;;;;-1.36;84.09;97913.91;2257001;79;21561;-63
2021/01/26 05:37:20;;;;;;;38.73;13.85;;;;;;;-1.36;84.21;97925.04;2259302;79;21285;-63
2021/01/26 05:40:21;;;;;;;33.23;11.55;;;;;;;-1.36;84.14;97914.75;2259433;79;21716;-63
2021/01/26 05:43:22;;;;;;;33.95;12.13;;;;;;;-1.36;84.01;97921.17;2259519;79;21162;-63
2021/01/26 05:46:23;;;;;;;37.17;13.08;;;;;;;-1.34;84.28;97927.11;2259424;79;21138;-64
2021/01/26 05:49:24;;;;;;;36.28;11.95;;;;;;;-1.34;84.46;97932.26;2259324;79;21296;-63
2021/01/26 05:52:26;;;;;;;43.33;14.83;;;;;;;-1.34;84.44;97934.00;2259417;79;21131;-63
2021/01/26 05:55:27;;;;;;;44.40;15.43;;;;;;;-1.34;84.19;97936.12;2259607;79;21436;-66
2021/01/26 05:58:28;;;;;;;34.13;11.18;;;;;;;-1.33;84.34;97940.39;2259630;79;21150;-63
2021/01/26 06:01:29;;;;;;;40.48;15.18;;;;;;;-1.32;84.34;97936.08;2259129;79;21133;-63
2021/01/26 06:04:34;;;;;;;37.80;13.25;;;;;;;-1.32;84.58;97930.50;2259136;79;21260;-66
2021/01/26 06:07:33;;;;;;;33.60;11.68;;;;;;;-1.31;84.42;97935.20;2265933;79;21550;-63
2021/01/26 06:10:35;;;;;;;30.27;9.95;;;;;;;-1.31;84.74;97940.34;2266569;79;21697;-64
2021/01/26 06:13:36;;;;;;;37.53;13.10;;;;;;;-1.31;84.12;97949.34;2266757;78;21094;-63
2021/01/26 06:16:37;;;;;;;32.95;12.20;;;;;;;-1.30;84.36;97957.48;2266794;79;21154;-64
2021/01/26 06:19:38;;;;;;;36.25;13.93;;;;;;;-1.28;84.36;97947.97;2266552;79;21271;-65
2021/01/26 06:22:40;;;;;;;36.42;14.63;;;;;;;-1.27;84.68;97943.23;2266760;79;21126;-64
2021/01/26 06:25:41;;;;;;;37.60;13.98;;;;;;;-1.29;84.70;97953.58;2266431;79;21582;-63
2021/01/26 06:28:42;;;;;;;40.80;14.98;;;;;;;-1.27;84.48;97954.36;2266530;79;21296;-65
2021/01/26 06:31:43;;;;;;;37.08;13.30;;;;;;;-1.27;84.86;97946.64;2266806;79;21280;-63
2021/01/26 06:34:44;;;;;;;37.93;13.68;;;;;;;-1.25;84.69;97964.61;2266495;79;21296;-65
2021/01/26 06:37:45;;;;;;;38.50;14.10;;;;;;;-1.24;84.33;97971.45;2266218;79;21742;-68
2021/01/26 06:40:47;;;;;;;38.60;15.00;;;;;;;-1.23;84.15;97980.42;2266743;79;21145;-63
2021/01/26 06:43:48;;;;;;;35.52;14.03;;;;;;;-1.21;84.46;97981.66;2266846;79;21267;-64
2021/01/26 06:46:49;;;;;;;40.00;13.25;;;;;;;-1.19;84.33;97981.62;2266283;79;21274;-64
2021/01/26 06:49:50;;;;;;;42.45;16.97;;;;;;;-1.20;84.81;97991.08;2266341;79;21287;-64
2021/01/26 06:52:52;;;;;;;40.92;16.05;;;;;;;-1.20;85.03;97978.21;2266472;79;21292;-64
2021/01/26 06:55:53;;;;;;;40.28;15.08;;;;;;;-1.18;85.22;97991.03;2266438;79;21744;-67
2021/01/26 06:58:55;;;;;;;39.78;16.40;;;;;;;-1.17;85.55;97987.59;2265981;79;21514;-65
2021/01/26 07:01:56;;;;;;;37.95;15.98;;;;;;;-1.17;85.28;97983.72;2266504;79;21721;-66
2021/01/26 07:04:57;;;;;;;45.40;16.93;;;;;;;-1.17;85.62;97985.02;2266113;79;21735;-67
2021/01/26 07:07:58;;;;;;;41.18;15.63;;;;;;;-1.18;85.83;97984.14;2266233;79;21534;-66
2021/01/26 07:10:59;;;;;;;36.35;13.13;;;;;;;-1.17;85.91;97985.84;2266226;79;21736;-63
2021/01/26 07:14:01;;;;;;;40.52;16.60;;;;;;;-1.16;85.63;97996.55;2266195;79;21126;-64
2021/01/26 07:17:02;;;;;;;35.38;12.80;;;;;;;-1.14;85.90;97984.47;2266698;79;21332;-63
2021/01/26 07:20:03;;;;;;;42.00;16.55;;;;;;;-1.14;85.74;97996.05;2266728;79;21126;-67
2021/01/26 07:23:04;;;;;;;38.83;14.78;;;;;;;-1.11;85.59;98005.42;2266149;79;21292;-63
2021/01/26 07:26:05;;;;;;;39.55;15.48;;;;;;;-1.10;85.63;98009.70;2266307;79;21260;-71
2021/01/26 07:29:06;;;;;;;40.80;16.20;;;;;;;-1.07;85.54;98004.46;2266391;79;21703;-68
2021/01/26 07:32:08;;;;;;;40.55;16.23;;;;;;;-1.05;85.47;98013.84;2266774;79;21126;-68
2021/01/26 07:35:09;;;;;;;40.80;15.60;;;;;;;-1.02;85.73;98003.05;2266488;79;21281;-69
2021/01/26 07:38:10;;;;;;;38.35;13.85;;;;;;;-1.02;85.36;98014.20;2266463;79;21728;-69
2021/01/26 07:41:11;;;;;;;37.63;14.28;;;;;;;-0.99;85.10;98011.54;2266231;79;21291;-64
2021/01/26 07:44:12;;;;;;;38.23;15.68;;;;;;;-0.98;85.00;98013.66;2266188;79;21300;-70
2021/01/26 07:47:13;;;;;;;43.40;15.43;;;;;;;-0.96;84.99;98017.89;2266254;79;21264;-67
2021/01/26 07:50:14;;;;;;;35.30;14.13;;;;;;;-0.95;84.54;98017.44;2266791;78;21114;-64
2021/01/26 07:53:15;;;;;;;37.50;13.90;;;;;;;-0.95;84.35;98018.30;2266430;79;21248;-65
2021/01/26 07:56:17;;;;;;;38.37;15.60;;;;;;;-0.94;84.15;98014.81;2237111;79;21665;-63
2021/01/26 07:59:21;;;;;;;39.27;13.80;;;;;;;-0.91;84.97;98010.03;2266520;79;21315;-67
2021/01/26 08:02:22;;;;;;;35.70;13.25;;;;;;;-0.89;84.21;98028.84;2266947;79;21237;-66
2021/01/26 08:05:23;;;;;;;38.40;13.68;;;;;;;-0.88;84.50;98015.09;2265574;79;21229;-64
2021/01/26 08:08:25;;;;;;;38.02;14.43;;;;;;;-0.86;83.86;98017.20;2259306;79;21242;-64
2021/01/26 08:11:26;;;;;;;38.75;14.83;;;;;;;-0.85;84.29;98015.45;2259794;79;21142;-64
2021/01/26 08:14:27;;;;;;;38.58;14.55;;;;;;;-0.83;83.74;98010.67;2259616;79;21578;-63
2021/01/26 08:17:29;;;;;;;33.75;11.85;;;;;;;-0.80;83.95;98013.16;2259247;79;21316;-65
2021/01/26 08:20:30;;;;;;;41.55;16.05;;;;;;;-0.76;83.13;98021.63;2259245;79;21756;-63
2021/01/26 08:23:31;;;;;;;42.17;16.27;;;;;;;-0.73;83.22;98020.28;2259256;79;21276;-63
2021/01/26 08:26:33;;;;;;;37.55;14.35;;;;;;;-0.68;83.95;98022.72;2259346;79;21569;-64
2021/01/26 08:29:34;;;;;;;32.60;11.35;;;;;;;-0.68;83.14;98024.00;2259540;79;21531;-63
2021/01/26 08:32:35;;;;;;;38.45;15.08;;;;;;;-0.66;82.67;98038.53;2259275;79;21122;-66
2021/01/26 08:35:37;;;;;;;38.40;14.28;;;;;;;-0.60;83.14;98033.66;2259406;79;21716;-66
2021/01/26 08:38:39;;;;;;;36.00;14.40;;;;;;;-0.56;82.95;98033.94;2259441;79;21657;-63
2021/01/26 08:41:40;;;;;;;36.03;13.50;;;;;;;-0.52;82.70;98048.42;2259336;79;21272;-66
2021/01/26 08:44:41;;;;;;;43.53;13.87;;;;;;;-0.49;82.28;98042.34;2259700;79;21146;-69
2021/01/26 08:47:43;;;;;;;35.58;15.03;;;;;;;-0.45;82.33;98041.38;2227362;79;21582;-66
2021/01/26 08:50:46;;;;;;;36.15;14.03;;;;;;;-0.42;82.25;98047.72;2259245;79;21130;-66
2021/01/26 08:53:47;;;;;;;38.58;14.25;;;;;;;-0.38;81.86;98062.21;2259380;79;21739;-63
2021/01/26 08:56:48;;;;;;;36.35;13.75;;;;;;;-0.37;81.66;98055.72;2259458;79;22212;-63
2021/01/26 08:59:50;;;;;;;33.30;12.33;;;;;;;-0.29;81.95;98066.25;2259550;79;21142;-63
2021/01/26 09:02:51;;;;;;;33.90;12.78;;;;;;;-0.29;80.58;98061.93;2259679;79;21143;-64
2021/01/26 09:05:52;;;;;;;34.00;12.93;;;;;;;-0.31;80.44;98066.75;2260866;79;21146;-67
2021/01/26 09:08:55;;;;;;;32.55;11.35;;;;;;;-0.29;80.62;98071.41;2266623;79;21285;-66
2021/01/26 09:11:56;;;;;;;36.65;13.88;;;;;;;-0.26;81.06;98077.33;2266877;79;21271;-64
2021/01/26 09:14:59;;;;;;;37.13;13.62;;;;;;;-0.24;81.12;98076.00;2266528;79;21724;-64
2021/01/26 09:18:00;;;;;;;35.58;13.25;;;;;;;-0.23;80.02;98076.38;2266439;79;21307;-67
2021/01/26 09:21:01;;;;;;;30.72;10.43;;;;;;;-0.25;80.70;98082.86;2266355;79;21641;-63
2021/01/26 09:24:02;;;;;;;33.83;11.43;;;;;;;-0.26;80.37;98081.62;2236486;79;21288;-64
2021/01/26 09:27:03;;;;;;;33.20;12.03;;;;;;;-0.27;80.36;98084.66;2266375;79;21272;-63
2021/01/26 09:30:05;;;;;;;37.30;15.05;;;;;;;-0.25;80.70;98076.88;2266871;79;21134;-63
2021/01/26 09:33:06;;;;;;;35.85;12.13;;;;;;;-0.21;81.09;98086.21;2266562;79;21284;-65
2021/01/26 09:36:08;;;;;;;35.60;12.85;;;;;;;-0.19;80.68;98085.28;2266590;79;21284;-64
2021/01/26 09:39:10;;;;;;;34.78;12.85;;;;;;;-0.18;80.55;98090.81;2236518;79;21289;-65
2021/01/26 09:42:12;;;;;;;35.85;13.32;;;;;;;-0.15;80.93;98089.89;2266578;79;21268;-69
2021/01/26 09:45:13;;;;;;;34.60;12.90;;;;;;;-0.14;80.12;98099.74;2266569;79;21115;-67
2021/01/26 09:48:14;;;;;;;35.10;12.15;;;;;;;-0.15;79.81;98095.05;2266370;79;21129;-69
2021/01/26 09:51:15;;;;;;;38.42;13.28;;;;;;;-0.10;80.14;98101.34;2266443;79;21727;-69
2021/01/26 09:54:16;;;;;;;33.15;12.23;;;;;;;-0.12;79.93;98103.97;2266611;79;21257;-68
2021/01/26 09:57:18;;;;;;;31.87;11.75;;;;;;;-0.14;80.36;98110.92;2236449;79;21307;-67
2021/01/26 10:00:22;;;;;;;34.63;11.97;;;;;;;-0.15;79.59;98112.25;2266436;79;21562;-69
2021/01/26 10:03:24;;;;;;;31.70;11.35;;;;;;;-0.10;79.85;98106.50;2266299;79;21267;-69
2021/01/26 10:06:26;;;;;;;32.08;10.85;;;;;;;-0.09;78.80;98109.03;2266632;79;21170;-63
2021/01/26 10:09:27;;;;;;;33.98;12.25;;;;;;;-0.06;79.64;98113.27;2266611;79;21178;-64
2021/01/26 10:12:28;;;;;;;35.73;13.48;;;;;;;-0.05;79.15;98111.92;2266342;78;21593;-63
2021/01/26 10:15:33;;;;;;;33.02;12.65;;;;;;;0.00;79.87;98106.66;2266308;79;21276;-63
2021/01/26 10:18:33;;;;;;;37.15;14.63;;;;;;;0.00;79.98;98118.27;2266110;79;21118;-65
2021/01/26 10:24:52;;;;;;;36.13;12.95;;;;;;;0.10;79.53;98113.65;2210878;79;22925;-64
2021/01/26 10:27:54;;;;;;;35.43;13.22;;;;;;;0.10;79.36;98111.07;2178225;82;21280;-68
2021/01/26 10:30:55;;;;;;;38.90;14.80;;;;;;;0.12;79.46;98097.70;2178474;82;21293;-64
2021/01/26 10:33:56;;;;;;;36.17;13.28;;;;;;;0.13;79.30;98111.84;2178307;82;21751;-67
2021/01/26 10:36:58;;;;;;;37.93;14.33;;;;;;;0.13;78.67;98114.84;2178227;82;21273;-65
2021/01/26 10:39:59;;;;;;;33.63;11.28;;;;;;;0.17;79.73;98109.99;2178652;82;21162;-64
2021/01/26 10:43:00;;;;;;;38.65;13.15;;;;;;;0.23;78.88;98118.86;2178394;82;21166;-67
2021/01/26 10:46:01;;;;;;;33.70;12.93;;;;;;;0.21;78.80;98114.17;2178690;82;21311;-70
2021/01/26 10:49:03;;;;;;;36.70;14.60;;;;;;;0.15;78.96;98118.23;2178342;82;21143;-66
2021/01/26 10:52:04;;;;;;;37.45;14.45;;;;;;;0.17;79.18;98112.58;2178421;81;21293;-68
2021/01/26 10:55:05;;;;;;;30.82;10.58;;;;;;;0.22;79.66;98108.59;2178210;82;21135;-69
2021/01/26 10:58:06;;;;;;;33.75;11.65;;;;;;;0.29;78.64;98112.67;2178366;82;21155;-69
2021/01/26 11:01:08;;;;;;;40.50;14.63;;;;;;;0.28;77.91;98113.09;2178719;82;21614;-70
2021/01/26 11:04:09;;;;;;;36.20;12.90;;;;;;;0.33;78.34;98121.55;2178156;82;21155;-69
2021/01/26 11:07:10;;;;;;;39.53;14.40;;;;;;;0.33;77.62;98123.27;2178230;82;21166;-71
2021/01/26 11:10:11;;;;;;;32.23;11.38;;;;;;;0.29;77.98;98123.82;2178698;82;21301;-64
2021/01/26 11:13:12;;;;;;;37.98;14.28;;;;;;;0.25;77.84;98126.55;2178429;82;21273;-70
2021/01/26 11:16:13;;;;;;;35.68;13.55;;;;;;;0.20;79.03;98129.23;2178696;81;21284;-68
2021/01/26 11:19:15;;;;;;;36.40;13.22;;;;;;;0.18;78.84;98136.20;2178132;82;21146;-64
2021/01/26 11:22:19;;;;;;;38.35;14.28;;;;;;;0.11;79.63;98117.92;2178392;81;21300;-65
2021/01/26 11:25:22;;;;;;;30.60;11.33;;;;;;;0.08;79.30;98125.30;2179424;81;21261;-64
2021/01/26 11:28:23;;;;;;;33.50;12.85;;;;;;;0.09;79.35;98114.56;2179198;81;21281;-64
2021/01/26 11:31:24;;;;;;;32.00;11.43;;;;;;;0.07;79.55;98121.05;2179196;81;21276;-64
2021/01/26 11:34:25;;;;;;;32.83;11.85;;;;;;;0.08;80.05;98108.99;2178981;82;21701;-64
2021/01/26 11:37:27;;;;;;;34.90;12.03;;;;;;;0.06;80.20;98118.06;2178527;81;21601;-64
2021/01/26 11:40:28;;;;;;;37.75;15.50;;;;;;;0.09;80.17;98125.70;2178501;82;21289;-66
2021/01/26 11:43:30;;;;;;;40.10;16.62;;;;;;;0.11;80.60;98111.02;2178452;81;21773;-64
2021/01/26 11:46:31;;;;;;;35.52;13.75;;;;;;;0.16;81.35;98103.17;2178559;82;21292;-63
2021/01/26 11:49:33;;;;;;;35.55;14.03;;;;;;;0.18;80.41;98103.95;2178961;82;21159;-66
2021/01/26 11:52:34;;;;;;;39.65;16.00;;;;;;;0.11;81.20;98102.45;2150649;82;21277;-64
2021/01/26 11:55:35;;;;;;;37.45;14.28;;;;;;;0.04;81.37;98114.67;2178625;82;21284;-64
2021/01/26 11:58:37;;;;;;;36.85;14.87;;;;;;;-0.02;82.62;98105.84;2150600;82;21131;-66
2021/01/26 12:01:38;;;;;;;43.10;16.62;;;;;;;-0.10;82.98;98113.81;2178496;81;21139;-65
2021/01/26 12:04:39;;;;;;;41.88;17.15;;;;;;;-0.12;83.75;98114.28;2178669;82;21304;-64
2021/01/26 12:07:40;;;;;;;41.45;17.95;;;;;;;-0.16;84.25;98117.00;2178627;82;21729;-63
2021/01/26 12:10:41;;;;;;;38.85;14.73;;;;;;;-0.25;84.59;98111.22;2178607;82;21285;-63
2021/01/26 12:13:43;;;;;;;40.60;17.00;;;;;;;-0.29;84.62;98117.80;2178698;82;21309;-64
2021/01/26 12:16:44;;;;;;;41.27;16.03;;;;;;;-0.36;84.99;98103.80;2179200;82;21288;-63
2021/01/26 12:19:45;;;;;;;36.10;14.78;;;;;;;-0.34;84.56;98117.93;2178942;82;21182;-64
2021/01/26 12:22:46;;;;;;;36.30;14.85;;;;;;;-0.32;84.46;98110.16;2176000;81;21194;-66
2021/01/26 12:25:48;;;;;;;39.58;15.00;;;;;;;-0.29;84.33;98110.06;2161062;82;21139;-64
2021/01/26 12:28:49;;;;;;;36.13;14.38;;;;;;;-0.28;84.26;98112.59;2161046;82;21151;-63
2021/01/26 12:31:50;;;;;;;44.23;17.57;;;;;;;-0.19;84.18;98107.62;2161147;82;21728;-64
2021/01/26 12:34:51;;;;;;;39.30;15.18;;;;;;;-0.09;84.25;98104.33;2161002;82;21171;-63
2021/01/26 12:37:52;;;;;;;40.35;16.70;;;;;;;0.03;83.78;98110.85;2161038;82;21119;-64
2021/01/26 12:40:54;;;;;;;43.55;17.60;;;;;;;0.20;84.41;98115.52;2160979;82;21179;-64
2021/01/26 12:43:55;;;;;;;34.45;12.78;;;;;;;0.21;83.63;98112.88;2160965;82;21175;-63
2021/01/26 12:46:56;;;;;;;35.63;14.78;;;;;;;0.15;82.42;98120.36;2139945;82;21265;-64
2021/01/26 12:49:58;;;;;;;39.08;16.25;;;;;;;0.12;82.17;98120.91;2161170;82;21294;-66
2021/01/26 12:52:59;;;;;;;41.20;16.50;;;;;;;0.09;82.62;98118.43;2161110;82;21739;-64
2021/01/26 12:56:00;;;;;;;41.13;17.00;;;;;;;0.09;82.66;98123.59;2161261;82;21276;-64
2021/01/26 12:59:02;;;;;;;41.33;17.80;;;;;;;0.13;81.94;98111.84;2140253;82;21167;-63
2021/01/26 13:02:03;;;;;;;40.60;16.40;;;;;;;0.13;81.68;98109.26;2161205;82;21096;-67
2021/01/26 13:05:04;;;;;;;37.10;14.87;;;;;;;0.09;81.42;98125.70;2161035;82;21100;-64
2021/01/26 13:08:05;;;;;;;36.83;14.33;;;;;;;0.11;81.48;98117.47;2161225;82;21578;-64
2021/01/26 13:11:08;;;;;;;39.33;14.98;;;;;;;0.07;81.50;98121.48;2161042;82;21143;-64
2021/01/26 13:14:09;;;;;;;;;;;;;;;0.03;81.91;98123.32;2163561;82;21274;-65
2021/01/26 13:17:10;;;;;;;35.73;14.10;;;;;;;-0.02;81.93;98134.20;2161049;82;20123;-71
2021/01/26 13:20:11;;;;;;;38.20;16.23;;;;;;;-0.09;82.09;98133.53;2161119;82;21749;-65
2021/01/26 13:23:13;;;;;;;35.33;13.80;;;;;;;-0.14;82.74;98138.41;2164636;81;21280;-65
2021/01/26 13:26:14;;;;;;;37.45;16.37;;;;;;;-0.19;82.80;98136.84;2178421;81;21285;-66
2021/01/26 13:29:15;;;;;;;42.55;17.57;;;;;;;-0.23;83.04;98139.52;2178407;82;21268;-66
2021/01/26 13:32:16;;;;;;;33.50;12.88;;;;;;;-0.24;82.86;98141.72;2178375;81;21296;-68
2021/01/26 13:35:17;;;;;;;47.73;18.70;;;;;;;-0.27;81.75;98153.41;2178460;82;21764;-65
2021/01/26 13:38:18;;;;;;;42.60;17.30;;;;;;;-0.28;82.78;98137.08;2178609;82;21284;-65
2021/01/26 13:41:19;;;;;;;36.75;14.38;;;;;;;-0.27;82.85;98141.36;2178366;82;21269;-65
2021/01/26 13:44:21;;;;;;;36.10;14.50;;;;;;;-0.26;82.58;98152.08;2178324;81;21744;-65
2021/01/26 13:47:22;;;;;;;39.27;17.55;;;;;;;-0.28;82.68;98155.58;2178378;81;21266;-68
2021/01/26 13:50:23;;;;;;;41.10;16.97;;;;;;;-0.25;82.77;98142.14;2178635;82;21710;-65
2021/01/26 13:53:25;;;;;;;37.28;14.55;;;;;;;-0.22;82.85;98143.80;2178593;82;21276;-65
2021/01/26 13:56:27;;;;;;;35.55;14.98;;;;;;;-0.21;82.55;98150.20;2178514;81;22030;-65
2021/01/26 13:59:28;;;;;;;37.80;15.05;;;;;;;-0.22;82.36;98169.57;2178583;82;21332;-66